Time;durP1;ratioP1;P1;durP2;ratioP2;P2;SDS_P1;SDS_P2;PMS_P1;PMS_P2;Temp;Humidity;BMP_temperature;BMP_pressure;BME280_temperature;BME280_humidity;BME280_pressure;Samples;Min_cycle;Max_cycle;Signal;HPM_P1;HPM_P2
2022/09/04 00:01:15;;;;;;;20.65;10.38;;;;;;;;;;4989329;28;91362;-71
2022/09/04 00:03:49;;;;;;;13.27;9.38;;;;;;;;;;4989483;28;91174;-69
2022/09/04 00:06:18;;;;;;;17.55;8.50;;;;;;;;;;4989069;28;90300;-69
2022/09/04 00:08:44;;;;;;;19.58;9.05;;;;;;;;;;4988186;28;88762;-70
2022/09/04 00:11:11;;;;;;;18.80;8.60;;;;;;;;;;5009424;28;89795;-69
2022/09/04 00:13:40;;;;;;;21.45;8.40;;;;;;;;;;4995753;28;88836;-69
2022/09/04 00:16:08;;;;;;;15.70;8.57;;;;;;;;;;4992338;28;89816;-69
2022/09/04 00:18:53;;;;;;;15.40;7.90;;;;;;;;;;4988293;28;91096;-69
2022/09/04 00:21:24;;;;;;;11.35;9.68;;;;;;;;;;4989787;28;89335;-69
2022/09/04 00:23:54;;;;;;;18.98;9.98;;;;;;;;;;4989171;28;89845;-69
2022/09/04 00:26:49;;;;;;;17.15;10.13;;;;;;;;;;4988946;28;90052;-69
2022/09/04 00:29:27;;;;;;;14.82;9.43;;;;;;;;;;4987869;28;91063;-69
2022/09/04 00:32:03;;;;;;;15.07;9.48;;;;;;;;;;4979636;28;90202;-69
2022/09/04 00:34:35;;;;;;;18.73;9.88;;;;;;;;;;4989120;28;90352;-69
2022/09/04 00:37:03;;;;;;;13.07;10.23;;;;;;;;;;4988559;28;87931;-68
2022/09/04 00:39:35;;;;;;;14.60;10.10;;;;;;;;;;4991277;28;90557;-69
2022/09/04 00:42:05;;;;;;;18.85;9.65;;;;;;;;;;4995930;28;91336;-69
2022/09/04 00:44:56;;;;;;;15.32;9.60;;;;;;;;;;4999954;28;90265;-73
2022/09/04 00:47:40;;;;;;;14.55;10.00;;;;;;;;;;4986760;28;90087;-68
2022/09/04 00:50:16;;;;;;;16.65;10.43;;;;;;;;;;4987940;28;89101;-68
2022/09/04 00:52:42;;;;;;;14.88;10.27;;;;;;;;;;4986593;28;90284;-71
2022/09/04 00:55:12;;;;;;;15.65;10.77;;;;;;;;;;4987439;28;89429;-69
2022/09/04 00:57:55;;;;;;;22.13;10.45;;;;;;;;;;4989320;28;91123;-69
2022/09/04 01:00:22;;;;;;;16.63;10.63;;;;;;;;;;4989858;28;91830;-68
2022/09/04 01:02:58;;;;;;;17.80;10.75;;;;;;;;;;4990123;28;89131;-69
2022/09/04 01:05:29;;;;;;;15.13;10.65;;;;;;;;;;4987795;28;90670;-69
2022/09/04 01:08:13;;;;;;;16.30;11.15;;;;;;;;;;4985263;28;89911;-69
2022/09/04 01:10:47;;;;;;;16.55;10.57;;;;;;;;;;4986774;28;91189;-69
2022/09/04 01:13:32;;;;;;;17.03;11.00;;;;;;;;;;4995703;28;90347;-69
2022/09/04 01:16:04;;;;;;;14.32;11.18;;;;;;;;;;4992029;28;90412;-69
2022/09/04 01:18:55;;;;;;;15.93;10.60;;;;;;;;;;4988170;28;91122;-69
2022/09/04 01:21:48;;;;;;;19.02;11.70;;;;;;;;;;4986242;28;91171;-69
2022/09/04 01:24:28;;;;;;;17.42;10.82;;;;;;;;;;4987694;28;90514;-69
2022/09/04 01:27:01;;;;;;;13.85;10.77;;;;;;;;;;4989070;28;91443;-69
2022/09/04 01:29:48;;;;;;;14.13;11.15;;;;;;;;;;4987921;28;89549;-69
2022/09/04 01:32:14;;;;;;;18.00;11.52;;;;;;;;;;4987694;28;91451;-69
2022/09/04 01:34:48;;;;;;;18.25;10.27;;;;;;;;;;4995341;28;91002;-69
2022/09/04 01:37:21;;;;;;;20.30;12.52;;;;;;;;;;4980330;28;90670;-69
2022/09/04 01:39:53;;;;;;;20.65;12.23;;;;;;;;;;4985368;28;91484;-69
2022/09/04 01:42:21;;;;;;;17.63;11.95;;;;;;;;;;4987901;28;91476;-69
2022/09/04 01:44:48;;;;;;;14.52;12.40;;;;;;;;;;4987261;28;89840;-69
2022/09/04 01:47:20;;;;;;;18.58;13.13;;;;;;;;;;4994686;28;91328;-69
2022/09/04 01:49:50;;;;;;;21.10;12.65;;;;;;;;;;4984276;28;89782;-69
2022/09/04 01:52:22;;;;;;;17.42;12.80;;;;;;;;;;4987041;28;91048;-69
2022/09/04 01:54:55;;;;;;;19.15;12.70;;;;;;;;;;4987162;28;90167;-69
2022/09/04 01:57:28;;;;;;;16.08;10.20;;;;;;;;;;4986122;28;90311;-69
2022/09/04 02:00:15;;;;;;;23.77;10.18;;;;;;;;;;4994445;28;92003;-69
2022/09/04 02:02:48;;;;;;;31.25;11.23;;;;;;;;;;4967687;28;91041;-69
2022/09/04 02:05:24;;;;;;;18.23;10.65;;;;;;;;;;4986212;28;90277;-69
2022/09/04 02:07:58;;;;;;;14.70;10.40;;;;;;;;;;4985380;28;91410;-69
2022/09/04 02:10:48;;;;;;;17.35;10.00;;;;;;;;;;4990293;28;90767;-69
2022/09/04 02:13:21;;;;;;;15.52;10.60;;;;;;;;;;4980134;28;90519;-69
2022/09/04 02:15:53;;;;;;;17.00;10.30;;;;;;;;;;5003502;28;89819;-69
2022/09/04 02:18:19;;;;;;;;;;;;;;;;;;5000002;28;90393;-69
2022/09/04 02:20:55;;;;;;;15.05;10.18;;;;;;;;;;4988755;28;120635;-71
2022/09/04 02:23:34;;;;;;;18.60;11.63;;;;;;;;;;4989197;28;90497;-68
2022/09/04 02:26:20;;;;;;;17.63;11.32;;;;;;;;;;4986732;28;90901;-71
2022/09/04 02:28:56;;;;;;;16.02;11.10;;;;;;;;;;4985315;28;91976;-69
2022/09/04 02:31:22;;;;;;;17.02;11.50;;;;;;;;;;4984856;28;90543;-68
2022/09/04 02:34:07;;;;;;;14.55;11.18;;;;;;;;;;4989242;28;90255;-68
2022/09/04 02:36:43;;;;;;;16.05;11.02;;;;;;;;;;5007014;28;90648;-69
2022/09/04 02:39:25;;;;;;;15.07;11.43;;;;;;;;;;4985017;28;91024;-69
2022/09/04 02:41:51;;;;;;;;;;;;;;;;;;4987132;28;91064;-69
2022/09/04 02:44:36;;;;;;;14.02;11.13;;;;;;;;;;4987506;28;119143;-68
2022/09/04 02:47:11;;;;;;;15.68;10.75;;;;;;;;;;4996821;28;89418;-69
2022/09/04 02:49:48;;;;;;;14.00;11.75;;;;;;;;;;4998625;28;91522;-69
2022/09/04 02:52:33;;;;;;;17.75;12.45;;;;;;;;;;4985361;28;91016;-69
2022/09/04 02:55:18;;;;;;;19.20;12.35;;;;;;;;;;4985297;28;91682;-69
2022/09/04 02:58:13;;;;;;;17.25;12.95;;;;;;;;;;4982388;28;91036;-69
2022/09/04 03:00:58;;;;;;;17.40;12.57;;;;;;;;;;4969696;28;90476;-69
2022/09/04 03:03:33;;;;;;;19.63;12.98;;;;;;;;;;4986356;28;91175;-69
2022/09/04 03:06:09;;;;;;;16.27;12.45;;;;;;;;;;4986132;28;90576;-69
2022/09/04 03:08:37;;;;;;;15.98;12.55;;;;;;;;;;4988208;28;91796;-69
2022/09/04 03:11:09;;;;;;;18.27;12.50;;;;;;;;;;4986158;28;91974;-69
2022/09/04 03:13:48;;;;;;;18.80;12.73;;;;;;;;;;4989128;28;90433;-69
2022/09/04 03:16:17;;;;;;;17.75;13.05;;;;;;;;;;4989067;28;89966;-69
2022/09/04 03:19:02;;;;;;;15.48;12.77;;;;;;;;;;4990798;28;91670;-69
2022/09/04 03:21:54;;;;;;;16.27;11.98;;;;;;;;;;4991103;28;90593;-69
2022/09/04 03:24:26;;;;;;;16.33;13.05;;;;;;;;;;4993825;28;91265;-69
2022/09/04 03:26:53;;;;;;;;;;;;;;;;;;4992879;28;90616;-69
2022/09/04 03:29:25;;;;;;;16.98;12.65;;;;;;;;;;5010403;28;118026;-69
2022/09/04 03:31:51;;;;;;;;;;;;;;;;;;5003660;28;89446;-69
2022/09/04 03:34:24;;;;;;;19.33;12.23;;;;;;;;;;4989629;28;118148;-69
2022/09/04 03:37:11;;;;;;;26.27;12.38;;;;;;;;;;4986870;28;89798;-68
2022/09/04 03:39:48;;;;;;;16.58;10.95;;;;;;;;;;4967812;28;91653;-68
2022/09/04 03:42:22;;;;;;;17.27;12.43;;;;;;;;;;4991660;28;90669;-68
2022/09/04 03:44:58;;;;;;;15.27;11.05;;;;;;;;;;4992372;28;90381;-68
2022/09/04 03:47:44;;;;;;;17.55;12.07;;;;;;;;;;5007276;28;92524;-72
2022/09/04 03:50:18;;;;;;;16.30;11.77;;;;;;;;;;5010168;28;90618;-71
2022/09/04 03:53:04;;;;;;;23.15;12.95;;;;;;;;;;4979872;28;92213;-70
2022/09/04 03:55:46;;;;;;;16.70;12.23;;;;;;;;;;4988135;28;90958;-70
2022/09/04 03:58:13;;;;;;;;;;;;;;;;;;4990555;28;89270;-70
2022/09/04 04:00:45;;;;;;;18.50;12.00;;;;;;;;;;4986299;28;119382;-70
2022/09/04 04:03:13;;;;;;;16.33;11.90;;;;;;;;;;4983185;28;90895;-70
2022/09/04 04:05:45;;;;;;;17.10;12.05;;;;;;;;;;4999617;28;89853;-70
2022/09/04 04:08:16;;;;;;;17.00;12.40;;;;;;;;;;5008800;28;91010;-70
2022/09/04 04:10:46;;;;;;;19.60;12.27;;;;;;;;;;4999513;28;89193;-70
2022/09/04 04:13:25;;;;;;;16.92;11.95;;;;;;;;;;4989353;28;91266;-70
2022/09/04 04:15:55;;;;;;;17.40;12.30;;;;;;;;;;4988638;28;90538;-70
2022/09/04 04:18:27;;;;;;;20.55;13.05;;;;;;;;;;4989333;28;90861;-70
2022/09/04 04:20:59;;;;;;;21.83;13.65;;;;;;;;;;4988105;28;91243;-70
2022/09/04 04:23:35;;;;;;;18.33;14.10;;;;;;;;;;5004128;28;91024;-70
2022/09/04 04:26:07;;;;;;;21.55;13.68;;;;;;;;;;5008441;28;90462;-70
2022/09/04 04:28:57;;;;;;;19.33;12.30;;;;;;;;;;5011606;28;91366;-68
2022/09/04 04:31:43;;;;;;;16.85;12.57;;;;;;;;;;4993277;28;89817;-70
2022/09/04 04:34:18;;;;;;;17.40;13.27;;;;;;;;;;4993423;28;91448;-70
2022/09/04 04:36:54;;;;;;;16.88;12.88;;;;;;;;;;4990291;28;90843;-70
2022/09/04 04:39:38;;;;;;;16.05;12.73;;;;;;;;;;4988454;28;90598;-70
2022/09/04 04:42:16;;;;;;;20.40;13.27;;;;;;;;;;4990181;28;91257;-70
2022/09/04 04:47:51;;;;;;;17.10;13.45;;;;;;;;;;5008718;28;90438;-69
2022/09/04 04:50:21;;;;;;;18.98;15.25;;;;;;;;;;4955072;28;91066;-70
2022/09/04 04:52:54;;;;;;;22.48;15.23;;;;;;;;;;4948809;28;90461;-70
2022/09/04 04:55:28;;;;;;;18.17;13.98;;;;;;;;;;4943122;28;91754;-70
2022/09/04 04:58:13;;;;;;;21.23;15.05;;;;;;;;;;4943646;28;90764;-70
2022/09/04 05:00:49;;;;;;;21.58;13.63;;;;;;;;;;4952629;28;90235;-70
2022/09/04 18:56:21;;;;;;;5.45;2.10;;;;;;;;;;5108830;27;86686;-71
2022/09/04 18:59:06;;;;;;;6.05;2.05;;;;;;;;;;5103182;27;88941;-69
2022/09/04 19:01:35;;;;;;;8.32;2.47;;;;;;;;;;5107207;27;88385;-70
2022/09/04 19:04:14;;;;;;;3.88;2.40;;;;;;;;;;5102244;27;88637;-70
2022/09/04 19:06:51;;;;;;;5.47;2.33;;;;;;;;;;5097118;27;89365;-70
2022/09/04 19:09:24;;;;;;;14.32;2.72;;;;;;;;;;5085887;27;88689;-70
2022/09/04 19:11:56;;;;;;;24.42;2.90;;;;;;;;;;5085661;27;88677;-70
2022/09/04 19:14:25;;;;;;;8.18;2.70;;;;;;;;;;5099860;27;89153;-70
2022/09/04 19:16:57;;;;;;;9.98;2.30;;;;;;;;;;5088584;27;88267;-70
2022/09/04 19:19:33;;;;;;;5.65;2.33;;;;;;;;;;5103109;27;88119;-69
2022/09/04 19:22:23;;;;;;;6.03;2.20;;;;;;;;;;5101272;27;89850;-70
2022/09/04 19:25:05;;;;;;;6.97;2.72;;;;;;;;;;5104558;27;88487;-69
2022/09/04 19:27:50;;;;;;;4.22;2.30;;;;;;;;;;5105590;27;88903;-69
2022/09/04 19:30:22;;;;;;;6.80;2.40;;;;;;;;;;5096891;27;88157;-70
2022/09/04 19:33:09;;;;;;;14.43;2.60;;;;;;;;;;5098264;27;88725;-69
2022/09/04 19:35:41;;;;;;;6.53;2.92;;;;;;;;;;5105940;27;87933;-69
2022/09/04 19:38:10;;;;;;;18.85;3.47;;;;;;;;;;5103857;27;88326;-69
2022/09/04 19:41:11;;;;;;;8.13;3.70;;;;;;;;;;5104960;27;90680;-70
2022/09/04 19:44:00;;;;;;;11.77;3.78;;;;;;;;;;5104114;27;90289;-69
2022/09/04 19:46:59;;;;;;;8.77;3.63;;;;;;;;;;5090183;27;90510;-70
2022/09/04 19:49:41;;;;;;;6.53;2.80;;;;;;;;;;5097883;27;89325;-69
2022/09/04 19:52:43;;;;;;;9.40;2.97;;;;;;;;;;5088233;27;90720;-70
2022/09/04 19:55:46;;;;;;;12.10;3.00;;;;;;;;;;5103815;27;91028;-70
2022/09/04 19:58:16;;;;;;;6.65;3.47;;;;;;;;;;5105615;27;89150;-70
2022/09/04 20:00:47;;;;;;;10.05;3.53;;;;;;;;;;5091967;27;88821;-69
2022/09/04 20:03:19;;;;;;;8.95;3.08;;;;;;;;;;5093454;27;88297;-69
2022/09/04 20:06:06;;;;;;;6.13;3.10;;;;;;;;;;5091490;27;88969;-69
2022/09/04 20:08:50;;;;;;;9.07;3.20;;;;;;;;;;5071567;27;88625;-70
2022/09/04 20:11:17;;;;;;;15.52;3.28;;;;;;;;;;5076381;27;89377;-70
2022/09/04 20:14:03;;;;;;;9.50;3.50;;;;;;;;;;5091165;27;88961;-69
2022/09/04 20:16:49;;;;;;;14.98;3.85;;;;;;;;;;5085453;27;88532;-70
2022/09/04 20:19:21;;;;;;;11.45;3.55;;;;;;;;;;5087962;27;89395;-70
2022/09/04 20:22:02;;;;;;;13.25;3.35;;;;;;;;;;5075394;27;88664;-69
2022/09/04 20:24:42;;;;;;;7.28;3.17;;;;;;;;;;5089016;27;88624;-70
2022/09/04 20:27:33;;;;;;;8.80;3.50;;;;;;;;;;5070396;27;89118;-70
2022/09/04 20:30:10;;;;;;;12.30;3.28;;;;;;;;;;5073374;27;87039;-70
2022/09/04 20:32:41;;;;;;;10.32;3.70;;;;;;;;;;5072751;27;89037;-70
2022/09/04 20:35:11;;;;;;;14.57;3.63;;;;;;;;;;5079466;27;88553;-71
2022/09/04 20:37:44;;;;;;;11.95;3.70;;;;;;;;;;5091202;27;88651;-69
2022/09/04 20:40:21;;;;;;;9.45;3.90;;;;;;;;;;5081189;27;89164;-70
2022/09/04 20:43:01;;;;;;;10.20;3.87;;;;;;;;;;5071996;27;89530;-70
2022/09/04 20:45:46;;;;;;;13.27;4.00;;;;;;;;;;5075516;27;88347;-70
2022/09/04 20:48:43;;;;;;;10.45;3.88;;;;;;;;;;5086495;27;92411;-70
2022/09/04 20:51:31;;;;;;;9.13;3.75;;;;;;;;;;5083012;27;90748;-70
2022/09/04 20:54:39;;;;;;;13.23;3.75;;;;;;;;;;5087555;27;91069;-70
2022/09/04 20:57:12;;;;;;;4.88;2.88;;;;;;;;;;5091539;27;88452;-71
2022/09/04 21:00:02;;;;;;;8.43;2.75;;;;;;;;;;5071086;27;91158;-70
2022/09/04 21:03:07;;;;;;;7.82;2.92;;;;;;;;;;5073668;27;91600;-70
2022/09/04 21:06:12;;;;;;;11.93;3.00;;;;;;;;;;5086811;27;90040;-70
2022/09/04 21:08:57;;;;;;;9.55;3.00;;;;;;;;;;5088802;27;89490;-70
2022/09/04 21:11:26;;;;;;;8.80;3.03;;;;;;;;;;5084715;27;89103;-70
2022/09/04 21:14:18;;;;;;;7.05;3.03;;;;;;;;;;5080849;27;88392;-70
2022/09/04 21:17:03;;;;;;;11.93;3.17;;;;;;;;;;5081760;27;88362;-70
2022/09/04 21:20:01;;;;;;;12.05;4.05;;;;;;;;;;5086085;27;88474;-70
2022/09/04 21:22:43;;;;;;;7.18;3.85;;;;;;;;;;5091239;27;88668;-70
2022/09/04 21:25:21;;;;;;;6.33;3.40;;;;;;;;;;5086020;27;88629;-69
2022/09/04 21:28:02;;;;;;;12.20;3.33;;;;;;;;;;5085199;27;87673;-70
2022/09/04 21:30:48;;;;;;;10.73;3.60;;;;;;;;;;5071391;27;88599;-70
2022/09/04 21:33:22;;;;;;;10.88;3.63;;;;;;;;;;5089683;27;89080;-70
2022/09/04 21:36:13;;;;;;;11.93;3.65;;;;;;;;;;5090443;27;88333;-70
2022/09/04 21:38:55;;;;;;;8.73;3.13;;;;;;;;;;5089260;27;88449;-70
2022/09/04 21:41:22;;;;;;;8.13;3.60;;;;;;;;;;5080165;27;88332;-70
2022/09/04 21:44:07;;;;;;;5.70;3.83;;;;;;;;;;5082953;27;88359;-70
2022/09/04 21:46:36;;;;;;;8.88;3.60;;;;;;;;;;5090012;27;89714;-70
2022/09/04 21:49:21;;;;;;;5.60;3.53;;;;;;;;;;5072412;27;87444;-70
2022/09/04 21:51:58;;;;;;;12.65;4.18;;;;;;;;;;5087993;27;88710;-70
2022/09/04 21:54:31;;;;;;;7.95;3.20;;;;;;;;;;5089726;27;89351;-70
2022/09/04 21:57:18;;;;;;;9.13;3.40;;;;;;;;;;5070969;27;90502;-70
2022/09/04 22:00:12;;;;;;;11.10;3.65;;;;;;;;;;5075911;27;90234;-70
2022/09/04 22:02:58;;;;;;;6.03;3.20;;;;;;;;;;5088473;27;90037;-70
2022/09/04 22:05:46;;;;;;;9.45;3.70;;;;;;;;;;5093300;27;88827;-70
2022/09/04 22:08:38;;;;;;;5.60;3.30;;;;;;;;;;5090705;27;89362;-70
2022/09/04 22:11:27;;;;;;;8.52;3.78;;;;;;;;;;5052673;27;90923;-70
2022/09/04 22:14:24;;;;;;;8.35;3.90;;;;;;;;;;5071628;27;90786;-70
2022/09/04 22:16:58;;;;;;;6.88;3.40;;;;;;;;;;5106328;27;89144;-69
2022/09/04 22:19:32;;;;;;;11.15;3.33;;;;;;;;;;5090294;27;88543;-69
2022/09/04 22:22:17;;;;;;;9.38;3.72;;;;;;;;;;5083317;27;88301;-69
2022/09/04 22:24:49;;;;;;;7.13;3.60;;;;;;;;;;5089563;27;87906;-69
2022/09/04 22:27:34;;;;;;;13.80;3.90;;;;;;;;;;5081536;27;89155;-69
2022/09/04 22:30:21;;;;;;;10.07;3.70;;;;;;;;;;5092256;27;90602;-69
2022/09/04 22:33:06;;;;;;;8.57;3.50;;;;;;;;;;5084348;27;88878;-69
2022/09/04 22:35:32;;;;;;;9.80;3.42;;;;;;;;;;5070264;27;88753;-69
2022/09/04 22:38:01;;;;;;;9.80;3.65;;;;;;;;;;5088818;27;89084;-69
2022/09/04 22:40:36;;;;;;;7.65;3.65;;;;;;;;;;5089428;27;88089;-69
2022/09/04 22:43:22;;;;;;;18.77;3.70;;;;;;;;;;5080446;27;88586;-69
2022/09/04 22:46:01;;;;;;;14.15;4.10;;;;;;;;;;5075451;27;87901;-69
2022/09/04 22:48:34;;;;;;;7.28;3.75;;;;;;;;;;5090036;27;87484;-69
2022/09/04 22:51:00;;;;;;;6.50;3.65;;;;;;;;;;5088490;27;88339;-69
2022/09/04 22:53:49;;;;;;;10.27;3.58;;;;;;;;;;5084395;27;87946;-69
2022/09/04 22:56:34;;;;;;;8.88;4.00;;;;;;;;;;5069982;27;88582;-69
2022/09/04 22:59:19;;;;;;;10.57;4.03;;;;;;;;;;5084039;27;88871;-69
2022/09/04 23:02:12;;;;;;;8.18;4.03;;;;;;;;;;5088854;27;88321;-69
2022/09/04 23:04:58;;;;;;;8.73;4.00;;;;;;;;;;5072366;27;88527;-69
2022/09/04 23:07:27;;;;;;;9.27;4.20;;;;;;;;;;5078980;27;87129;-70
2022/09/04 23:10:37;;;;;;;9.90;3.92;;;;;;;;;;5090257;27;90574;-70
2022/09/04 23:13:44;;;;;;;6.57;4.22;;;;;;;;;;5066720;27;89827;-68
2022/09/04 23:16:49;;;;;;;11.23;4.32;;;;;;;;;;5069231;27;91320;-69
2022/09/04 23:19:35;;;;;;;10.88;4.30;;;;;;;;;;5083622;27;88393;-68
2022/09/04 23:22:39;;;;;;;8.70;4.20;;;;;;;;;;5089152;27;91072;-69
2022/09/04 23:25:35;;;;;;;11.55;4.18;;;;;;;;;;5080557;27;90702;-71
2022/09/04 23:28:40;;;;;;;7.90;4.22;;;;;;;;;;5080903;27;92259;-71
2022/09/04 23:31:25;;;;;;;11.82;3.90;;;;;;;;;;5068512;27;89001;-70
2022/09/04 23:34:02;;;;;;;9.80;4.10;;;;;;;;;;5081835;27;89333;-69
2022/09/04 23:36:50;;;;;;;9.27;4.30;;;;;;;;;;5073752;27;90385;-69
2022/09/04 23:39:32;;;;;;;10.93;3.90;;;;;;;;;;5070945;27;89560;-69
2022/09/04 23:42:10;;;;;;;8.30;4.55;;;;;;;;;;5092888;27;90895;-69
2022/09/04 23:44:37;;;;;;;9.82;4.65;;;;;;;;;;5090462;27;88514;-69
2022/09/04 23:47:15;;;;;;;12.57;4.03;;;;;;;;;;5071327;27;91538;-69
2022/09/04 23:50:19;;;;;;;10.75;4.38;;;;;;;;;;5072875;27;92248;-69
2022/09/04 23:53:23;;;;;;;9.55;4.50;;;;;;;;;;5091907;27;89074;-68
2022/09/04 23:56:05;;;;;;;8.38;4.40;;;;;;;;;;4985439;28;89776;-69
